createdAt,value
2022-08-10T05:02:28.101Z,100.00
2022-08-10T05:04:56.365Z,100.00
2022-08-10T05:07:24.173Z,100.00
2022-08-10T05:10:03.787Z,100.00
2022-08-10T05:12:35.947Z,100.00
2022-08-10T05:15:06.859Z,100.00
2022-08-10T05:17:36.859Z,100.00
2022-08-10T05:20:06.709Z,100.00
2022-08-10T05:22:40.738Z,100.00
2022-08-10T05:25:11.257Z,100.00
2022-08-10T05:27:40.286Z,100.00
2022-08-10T05:30:10.361Z,100.00
2022-08-10T05:32:55.559Z,100.00
2022-08-10T05:35:26.169Z,100.00
2022-08-10T05:38:10.561Z,100.00
2022-08-10T05:40:46.807Z,100.00
2022-08-10T05:43:17.765Z,100.00
2022-08-10T05:46:18.903Z,100.00
2022-08-10T05:48:54.321Z,100.00
2022-08-10T05:51:24.558Z,100.00
2022-08-10T05:54:02.378Z,100.00
2022-08-10T05:56:54.061Z,100.00
2022-08-10T06:00:33.200Z,100.00
2022-08-10T06:02:41.704Z,100.00
2022-08-10T06:05:06.620Z,100.00
2022-08-10T06:07:38.427Z,100.00
2022-08-10T06:10:10.237Z,100.00
2022-08-10T06:12:54.192Z,100.00
2022-08-10T06:15:52.182Z,100.00
2022-08-10T06:18:14.395Z,100.00
2022-08-10T06:20:43.951Z,100.00
2022-08-10T06:23:13.385Z,100.00
2022-08-10T06:26:11.091Z,100.00
2022-08-10T06:28:33.762Z,100.00
2022-08-10T06:31:02.990Z,100.00
2022-08-10T06:33:33.123Z,100.00
2022-08-10T06:36:04.270Z,100.00
2022-08-10T06:38:34.787Z,100.00
2022-08-10T06:41:16.742Z,100.00
2022-08-10T06:43:56.845Z,100.00
2022-08-10T06:46:26.303Z,100.00
2022-08-10T06:48:56.618Z,100.00
2022-08-10T06:51:28.853Z,100.00
2022-08-10T06:54:00.883Z,100.00
2022-08-10T06:56:37.423Z,100.00
2022-08-10T06:59:13.307Z,100.00
2022-08-10T07:01:54.317Z,100.00
2022-08-10T07:04:32.404Z,100.00
2022-08-10T07:07:06.435Z,100.00
2022-08-10T07:09:37.731Z,100.00
2022-08-10T07:12:09.167Z,100.00
2022-08-10T07:14:43.995Z,100.00
2022-08-10T07:17:16.608Z,100.00
2022-08-10T07:19:50.263Z,100.00
2022-08-10T07:23:08.738Z,100.00
2022-08-10T07:25:15.985Z,100.00
2022-08-10T07:28:00.129Z,100.00
2022-08-10T07:30:30.696Z,100.00
2022-08-10T07:33:01.141Z,100.00
2022-08-10T07:35:37.300Z,100.00
2022-08-10T07:38:18.920Z,100.00
2022-08-10T07:40:48.659Z,100.00
2022-08-10T07:43:18.070Z,100.00
2022-08-10T07:45:47.526Z,100.00
2022-08-10T07:48:18.022Z,100.00
2022-08-10T07:50:47.411Z,100.00
2022-08-10T07:53:22.657Z,100.00
2022-08-10T07:56:02.143Z,94.77
2022-08-10T07:58:39.434Z,98.36
2022-08-10T08:01:16.660Z,97.27
2022-08-10T08:04:05.614Z,92.93
2022-08-10T08:06:37.631Z,91.51
2022-08-10T08:09:07.247Z,91.29
2022-08-10T08:11:37.145Z,86.79
2022-08-10T08:14:07.016Z,92.43
2022-08-10T08:16:36.513Z,87.29
2022-08-10T08:24:06.309Z,82.32
2022-08-10T08:24:45.303Z,81.71
2022-08-10T08:27:16.720Z,81.57
2022-08-10T08:29:47.402Z,78.00
2022-08-10T08:32:18.907Z,74.30
2022-08-10T08:34:48.297Z,75.98
2022-08-10T08:38:31.941Z,78.65
2022-08-10T08:40:12.410Z,73.29
2022-08-10T08:43:05.947Z,76.37
2022-08-10T08:45:54.068Z,73.08
2022-08-10T08:48:47.506Z,73.92
2022-08-10T08:52:08.166Z,67.82
2022-08-10T08:54:32.918Z,63.22
2022-08-10T08:57:09.140Z,67.09
2022-08-10T08:59:51.358Z,62.00
2022-08-10T09:02:35.078Z,62.79
2022-08-10T09:05:24.261Z,62.81
2022-08-10T09:08:14.094Z,62.55
2022-08-10T09:10:51.547Z,62.09
2022-08-10T09:13:29.316Z,61.32
2022-08-10T09:16:07.044Z,60.26
2022-08-10T09:18:43.075Z,61.01
2022-08-10T09:21:18.465Z,61.44
2022-08-10T09:24:04.171Z,61.92
2022-08-10T09:26:43.859Z,55.89
2022-08-10T09:29:17.627Z,56.92
2022-08-10T09:33:05.833Z,58.32
2022-08-10T09:36:20.692Z,59.37
2022-08-10T09:38:01.948Z,55.90
2022-08-10T09:41:01.056Z,54.37
2022-08-10T09:43:32.323Z,52.32
2022-08-10T09:46:12.135Z,56.30
2022-08-10T09:48:48.637Z,56.02
2022-08-10T09:51:47.057Z,56.51
2022-08-10T09:54:29.458Z,53.15
2022-08-10T09:57:44.576Z,49.86
2022-08-10T10:00:03.038Z,50.63
2022-08-10T10:02:43.183Z,52.10
2022-08-10T10:05:30.868Z,50.06
2022-08-10T10:08:07.031Z,49.47
2022-08-10T10:10:47.572Z,51.11
2022-08-10T10:13:41.726Z,49.42
2022-08-10T10:16:37.663Z,48.22
2022-08-10T10:19:19.648Z,47.95
2022-08-10T10:21:54.378Z,46.16
2022-08-10T10:24:34.167Z,46.58
2022-08-10T10:27:15.952Z,47.26
2022-08-10T10:29:57.048Z,46.71
2022-08-10T10:32:39.244Z,49.30
2022-08-10T10:35:17.629Z,48.42
2022-08-10T10:38:02.863Z,48.83
2022-08-10T10:40:39.726Z,49.48
2022-08-10T10:43:16.701Z,49.78
2022-08-10T10:45:57.467Z,53.52
2022-08-10T10:48:34.026Z,52.02
2022-08-10T10:51:13.581Z,51.26
2022-08-10T10:53:47.125Z,49.13
2022-08-10T10:56:21.529Z,49.92
2022-08-10T10:58:59.808Z,51.15
2022-08-10T11:01:45.969Z,49.05
2022-08-10T11:04:24.192Z,50.66
2022-08-10T11:07:00.729Z,49.61
2022-08-10T11:10:09.242Z,47.44
2022-08-10T11:12:30.432Z,47.33
2022-08-10T11:15:04.741Z,48.78
2022-08-10T11:17:39.724Z,49.45
2022-08-10T11:20:15.806Z,48.97
2022-08-10T11:22:52.679Z,49.10
2022-08-10T11:25:27.437Z,47.62
2022-08-10T11:28:01.759Z,47.07
2022-08-10T11:30:40.995Z,49.91
2022-08-10T11:33:15.544Z,47.05
2022-08-10T11:36:04.088Z,45.80
2022-08-10T11:38:57.593Z,45.93
2022-08-10T11:42:09.205Z,47.28
2022-08-10T11:44:32.099Z,46.56
2022-08-10T11:47:05.922Z,47.50
2022-08-10T11:49:38.911Z,45.88
2022-08-10T11:52:14.428Z,46.39
2022-08-10T11:57:16.897Z,46.87
2022-08-10T12:00:00.988Z,48.06
2022-08-10T12:02:33.936Z,47.14
2022-08-10T12:05:07.521Z,47.16
2022-08-10T12:10:07.578Z,48.91
2022-08-10T12:10:30.504Z,47.97
2022-08-10T12:13:05.941Z,45.90
2022-08-10T12:15:35.713Z,48.50
2022-08-10T12:18:13.772Z,47.77
2022-08-10T12:20:44.906Z,46.42
2022-08-10T12:23:18.345Z,45.69
2022-08-10T12:25:57.831Z,46.50
2022-08-10T12:28:50.723Z,47.15
2022-08-10T12:31:25.234Z,45.44
2022-08-10T12:34:04.589Z,45.63
2022-08-10T12:36:37.909Z,45.07
2022-08-10T12:39:13.502Z,43.42
2022-08-10T12:41:49.595Z,45.23
2022-08-10T12:44:23.389Z,46.48
2022-08-10T12:47:17.561Z,44.98
2022-08-10T12:50:29.441Z,42.92
2022-08-10T12:52:45.257Z,42.73
2022-08-10T12:55:14.639Z,42.63
2022-08-10T12:57:44.999Z,43.38
2022-08-10T13:00:17.684Z,45.18
2022-08-10T13:02:49.187Z,45.71
2022-08-10T13:05:18.534Z,44.68
2022-08-10T13:08:24.958Z,45.28
2022-08-10T13:10:45.399Z,45.10
2022-08-10T13:13:15.817Z,45.19
2022-08-10T13:15:50.782Z,45.44
2022-08-10T13:18:27.230Z,44.44
2022-08-10T13:21:00.640Z,44.89
2022-08-10T13:23:30.924Z,46.33
2022-08-10T13:26:01.902Z,45.35
2022-08-10T13:28:43.298Z,46.05
2022-08-10T13:31:18.294Z,45.57
2022-08-10T13:34:36.544Z,45.66
2022-08-10T13:36:41.479Z,44.85
2022-08-10T13:39:10.106Z,45.80
2022-08-10T13:41:40.874Z,44.41
2022-08-10T13:44:12.507Z,44.66
2022-08-10T13:46:42.312Z,44.26
2022-08-10T13:49:12.119Z,44.60
2022-08-10T13:51:56.687Z,44.25
2022-08-10T13:54:29.296Z,43.03
2022-08-10T13:56:57.825Z,44.17
2022-08-10T14:00:34.231Z,42.73
2022-08-10T14:02:25.130Z,41.81
2022-08-10T14:04:55.723Z,43.29
2022-08-10T14:07:25.067Z,44.06
2022-08-10T14:09:54.812Z,42.12
2022-08-10T14:12:33.404Z,41.93
2022-08-10T14:15:14.482Z,41.31
2022-08-10T14:17:45.082Z,42.31
2022-08-10T14:20:19.318Z,41.62
2022-08-10T14:22:49.468Z,42.01
2022-08-10T14:25:17.292Z,41.87
2022-08-10T14:28:03.072Z,39.77
2022-08-10T14:30:35.192Z,42.45
2022-08-10T14:33:04.844Z,42.39
2022-08-10T14:36:19.739Z,42.48
2022-08-10T14:38:28.691Z,42.00
2022-08-10T14:40:59.858Z,41.42
2022-08-10T14:43:29.746Z,42.18
2022-08-10T14:46:03.613Z,43.38
2022-08-10T14:48:39.250Z,42.30
2022-08-10T14:51:08.734Z,41.96
2022-08-10T14:53:38.584Z,43.51
2022-08-10T14:56:09.642Z,43.07
2022-08-10T14:58:59.245Z,42.20
2022-08-10T15:02:00.001Z,41.91
2022-08-10T15:04:24.446Z,42.16
2022-08-10T15:06:54.898Z,41.39
2022-08-10T15:09:26.458Z,42.14
2022-08-10T15:12:15.901Z,42.93
2022-08-10T15:14:46.433Z,41.62
2022-08-10T15:17:24.134Z,42.30
2022-08-10T15:20:02.423Z,41.99
2022-08-10T15:22:41.386Z,42.92
2022-08-10T15:25:19.105Z,42.10
2022-08-10T15:27:55.701Z,40.61
2022-08-10T15:30:32.107Z,40.92
2022-08-10T15:33:57.626Z,40.91
2022-08-10T15:36:33.934Z,40.56
2022-08-10T15:39:05.041Z,42.08
2022-08-10T15:41:58.017Z,42.41
2022-08-10T15:44:38.232Z,40.74
2022-08-10T15:47:10.247Z,41.63
2022-08-10T15:49:46.245Z,41.47
2022-08-10T15:52:40.127Z,40.55
2022-08-10T15:55:43.571Z,39.98
2022-08-10T15:58:06.773Z,40.17
2022-08-10T16:00:39.709Z,40.54
2022-08-10T16:03:14.541Z,39.44
2022-08-10T16:06:00.307Z,39.13
2022-08-10T16:08:56.441Z,40.36
2022-08-10T16:11:37.588Z,39.76
2022-08-10T16:14:13.996Z,39.59
2022-08-10T16:16:44.986Z,40.12
2022-08-10T16:19:23.771Z,40.00
2022-08-10T16:21:58.063Z,39.64
2022-08-10T16:24:28.257Z,39.75
2022-08-10T16:26:57.087Z,39.11
2022-08-10T16:29:26.988Z,38.73
2022-08-10T16:31:57.398Z,38.89
2022-08-10T16:34:28.246Z,38.74
2022-08-10T16:37:00.729Z,39.12
2022-08-10T16:39:59.769Z,38.61
2022-08-10T16:42:23.153Z,37.69
2022-08-10T16:44:58.901Z,37.47
2022-08-10T16:47:29.612Z,36.18
2022-08-10T16:50:01.142Z,34.54
2022-08-10T16:52:32.840Z,35.41
2022-08-10T16:55:08.480Z,35.17
2022-08-10T16:57:56.892Z,32.86
2022-08-10T17:00:26.904Z,30.82
2022-08-10T17:02:59.380Z,31.25
2022-08-10T17:06:03.668Z,31.83
2022-08-10T17:08:21.700Z,33.08
2022-08-10T17:10:52.026Z,28.82
2022-08-10T17:13:23.723Z,26.00
2022-08-10T17:15:57.355Z,24.87
2022-08-10T17:18:30.535Z,24.41
2022-08-10T17:21:00.816Z,24.97
2022-08-10T17:23:34.610Z,28.18
2022-08-10T17:26:08.147Z,30.04
2022-08-10T17:28:39.863Z,33.07
2022-08-10T17:31:23.776Z,35.90
2022-08-10T17:33:54.720Z,38.52
2022-08-10T17:36:25.454Z,38.98
2022-08-10T17:38:54.775Z,39.03
2022-08-10T17:41:28.586Z,39.29
2022-08-10T17:44:03.139Z,39.94
2022-08-10T17:46:35.666Z,41.50
2022-08-10T17:49:08.651Z,41.94
2022-08-10T17:51:39.265Z,41.11
2022-08-10T17:54:16.057Z,41.96
2022-08-10T17:56:44.164Z,41.53
2022-08-10T17:59:17.429Z,41.13
2022-08-10T18:01:59.097Z,42.76
2022-08-10T18:04:35.604Z,42.10
2022-08-10T18:07:11.747Z,43.91
2022-08-10T18:09:45.521Z,43.68
2022-08-10T18:12:17.795Z,44.15
2022-08-10T18:14:47.827Z,44.56
2022-08-10T18:17:19.952Z,45.39
2022-08-10T18:19:53.079Z,45.08
2022-08-10T18:22:22.286Z,45.18
2022-08-10T18:24:52.864Z,46.13
2022-08-10T18:27:22.406Z,45.11
2022-08-10T18:30:11.905Z,46.07
2022-08-10T18:32:42.778Z,47.11
2022-08-10T18:35:12.801Z,46.78
2022-08-10T18:37:42.534Z,47.35
2022-08-10T18:40:12.280Z,49.07
2022-08-10T18:42:46.218Z,49.42
2022-08-10T18:45:16.630Z,49.59
2022-08-10T18:47:59.543Z,50.68
2022-08-10T18:50:31.937Z,52.69
2022-08-10T18:53:02.553Z,52.64
2022-08-10T18:55:35.545Z,53.05
2022-08-10T18:58:41.777Z,56.46
2022-08-10T19:01:30.232Z,56.46
2022-08-10T19:04:14.497Z,58.52
2022-08-10T19:07:05.291Z,58.16
2022-08-10T19:09:48.284Z,60.52
2022-08-10T19:12:37.018Z,60.86
2022-08-10T19:15:27.047Z,64.24
2022-08-10T19:18:08.690Z,64.07
2022-08-10T19:20:42.410Z,69.97
2022-08-10T19:23:31.186Z,76.19
2022-08-10T19:26:42.325Z,75.66
2022-08-10T19:29:04.297Z,77.89
2022-08-10T19:31:44.507Z,80.79
2022-08-10T19:34:34.445Z,80.59
2022-08-10T19:37:11.121Z,80.36
2022-08-10T19:40:03.653Z,86.93
2022-08-10T19:42:42.501Z,84.46
2022-08-10T19:46:01.355Z,90.81
2022-08-10T19:48:17.089Z,97.41
2022-08-10T19:50:54.425Z,96.46
2022-08-10T19:53:32.416Z,96.17
2022-08-10T19:56:32.561Z,100.00
2022-08-10T20:00:14.986Z,100.00
2022-08-10T20:02:19.053Z,100.00
2022-08-10T20:04:57.842Z,100.00
2022-08-10T20:07:35.194Z,100.00
2022-08-10T20:10:08.818Z,100.00
2022-08-10T20:12:44.196Z,100.00
2022-08-10T20:15:22.207Z,100.00
2022-08-10T20:17:58.162Z,100.00
2022-08-10T20:20:31.836Z,100.00
2022-08-10T20:23:12.240Z,100.00
2022-08-10T20:25:44.614Z,100.00
2022-08-10T20:28:19.738Z,100.00
2022-08-10T20:30:53.627Z,100.00
2022-08-10T20:33:29.108Z,100.00
2022-08-10T20:36:04.275Z,100.00
2022-08-10T20:38:39.633Z,100.00
2022-08-10T20:41:16.685Z,100.00
2022-08-10T20:44:03.473Z,100.00
2022-08-10T20:46:34.677Z,100.00
2022-08-10T20:49:17.220Z,100.00
2022-08-10T20:51:57.348Z,100.00
2022-08-10T20:54:32.466Z,100.00
2022-08-10T20:57:56.417Z,100.00
2022-08-10T21:00:13.809Z,100.00
2022-08-10T21:02:58.457Z,100.00
2022-08-10T21:05:35.347Z,100.00
2022-08-10T21:08:15.971Z,100.00
2022-08-10T21:11:09.029Z,100.00
2022-08-10T21:13:58.075Z,100.00
2022-08-10T21:16:47.605Z,100.00
2022-08-10T21:19:53.848Z,100.00
2022-08-10T21:22:29.331Z,100.00
2022-08-10T21:25:02.710Z,100.00
2022-08-10T21:28:00.114Z,100.00
2022-08-10T21:30:45.807Z,100.00
2022-08-10T21:33:32.327Z,100.00
2022-08-10T21:36:09.773Z,100.00
2022-08-10T21:38:48.413Z,100.00
2022-08-10T21:41:58.792Z,100.00
2022-08-10T21:45:11.853Z,100.00
2022-08-10T21:48:18.667Z,100.00
2022-08-10T21:51:10.334Z,100.00
2022-08-10T21:54:05.591Z,100.00
2022-08-10T21:56:56.261Z,100.00
2022-08-10T21:59:49.270Z,100.00
2022-08-10T22:05:52.700Z,100.00
2022-08-10T22:08:44.418Z,100.00
2022-08-10T22:11:43.459Z,100.00
2022-08-10T22:14:33.706Z,100.00
2022-08-10T22:18:03.363Z,100.00
2022-08-10T22:20:35.300Z,100.00
2022-08-10T22:24:06.261Z,100.00
2022-08-10T22:27:46.614Z,100.00
2022-08-10T22:30:27.838Z,100.00
2022-08-10T22:31:25.744Z,100.00
2022-08-10T22:33:38.984Z,100.00
2022-08-10T22:36:59.750Z,100.00
2022-08-10T22:40:05.893Z,100.00
2022-08-10T22:43:11.036Z,100.00
2022-08-10T22:46:05.263Z,100.00
2022-08-10T22:48:59.454Z,100.00
2022-08-10T22:51:35.608Z,100.00
2022-08-10T22:54:30.463Z,100.00
2022-08-10T22:57:16.526Z,100.00
2022-08-10T22:59:45.923Z,100.00
2022-08-10T23:07:23.547Z,100.00
2022-08-10T23:09:59.304Z,100.00
2022-08-10T23:12:40.201Z,100.00
2022-08-10T23:15:35.679Z,100.00
2022-08-10T23:18:25.648Z,100.00
2022-08-10T23:20:57.034Z,100.00
2022-08-10T23:23:28.759Z,100.00
2022-08-10T23:25:58.489Z,100.00
2022-08-10T23:28:39.054Z,100.00
2022-08-10T23:31:17.662Z,100.00
2022-08-10T23:34:07.509Z,100.00
2022-08-10T23:36:38.409Z,100.00
2022-08-10T23:39:24.108Z,100.00
2022-08-10T23:42:00.732Z,100.00
2022-08-10T23:44:38.850Z,100.00
2022-08-10T23:47:07.584Z,100.00
2022-08-10T23:49:37.143Z,100.00
2022-08-10T23:52:17.969Z,100.00
2022-08-10T23:54:49.793Z,100.00
2022-08-10T23:57:21.271Z,100.00
2022-08-10T23:59:55.424Z,100.00
